Terminal Aerodrome Forecast
Issued by NWS Omaha/Valley, NE

Home | Current Version | Previous Version | Text Only | Print | Product List | Glossary On
Versions: 1 2 3 4 5 6 7 8 9 10 11 12 13 14 15 16
000
FTUS43 KOAX 290520
TAFLNK
TAF
KLNK 290520Z 2906/3006 30005KT P6SM SCT110
     FM291600 33012KT P6SM FEW250
     FM291800 32015G24KT P6SM SCT070
     FM300000 32008KT P6SM FEW070=

USA.gov is the U.S. government's official web portal to all federal, state and local government web resources and services.